sensor_id;sensor_type;location;lat;lon;timestamp;pressure;altitude;pressure_sealevel;temperature;humidity
77303;BME280;66363;49.828;7.856;2023-03-20T00:00:05;100421.16;;;7.72;87.28
77303;BME280;66363;49.828;7.856;2023-03-20T00:02:32;100390.44;;;7.54;86.97
77303;BME280;66363;49.828;7.856;2023-03-20T00:04:58;100395.06;;;7.51;86.99
77303;BME280;66363;49.828;7.856;2023-03-20T00:07:24;100370.16;;;7.39;87.31
77303;BME280;66363;49.828;7.856;2023-03-20T00:09:50;100413.31;;;7.71;86.89
77303;BME280;66363;49.828;7.856;2023-03-20T00:12:20;100395.47;;;7.59;87.12
77303;BME280;66363;49.828;7.856;2023-03-20T00:14:48;100392.84;;;7.59;86.79
77303;BME280;66363;49.828;7.856;2023-03-20T00:17:17;100392.75;;;7.60;87.02
77303;BME280;66363;49.828;7.856;2023-03-20T00:19:45;100418.28;;;7.77;86.34
77303;BME280;66363;49.828;7.856;2023-03-20T00:22:10;100414.00;;;7.74;86.71
77303;BME280;66363;49.828;7.856;2023-03-20T00:24:36;100367.53;;;7.55;86.33
77303;BME280;66363;49.828;7.856;2023-03-20T00:27:02;100406.78;;;7.78;86.13
77303;BME280;66363;49.828;7.856;2023-03-20T00:29:30;100377.59;;;7.64;86.09
77303;BME280;66363;49.828;7.856;2023-03-20T00:31:57;100400.97;;;7.71;86.31
77303;BME280;66363;49.828;7.856;2023-03-20T00:34:26;100408.97;;;7.86;86.69
77303;BME280;66363;49.828;7.856;2023-03-20T00:36:53;100381.00;;;7.66;86.05
77303;BME280;66363;49.828;7.856;2023-03-20T00:39:19;100412.28;;;7.73;85.71
77303;BME280;66363;49.828;7.856;2023-03-20T00:41:48;100409.97;;;7.67;86.34
77303;BME280;66363;49.828;7.856;2023-03-20T00:44:20;100403.31;;;7.60;86.66
77303;BME280;66363;49.828;7.856;2023-03-20T00:46:49;100420.72;;;7.64;86.43
77303;BME280;66363;49.828;7.856;2023-03-20T00:49:17;100376.97;;;7.43;86.96
77303;BME280;66363;49.828;7.856;2023-03-20T00:51:44;100400.34;;;7.51;87.24
77303;BME280;66363;49.828;7.856;2023-03-20T00:54:15;100406.28;;;7.54;87.42
77303;BME280;66363;49.828;7.856;2023-03-20T00:56:44;100414.03;;;7.57;87.31
77303;BME280;66363;49.828;7.856;2023-03-20T00:59:16;100440.06;;;7.80;87.36
77303;BME280;66363;49.828;7.856;2023-03-20T01:01:43;100422.63;;;7.78;86.54
77303;BME280;66363;49.828;7.856;2023-03-20T01:04:10;100412.22;;;7.75;86.48
77303;BME280;66363;49.828;7.856;2023-03-20T01:06:37;100399.09;;;7.73;85.73
77303;BME280;66363;49.828;7.856;2023-03-20T01:09:03;100430.72;;;7.91;85.78
77303;BME280;66363;49.828;7.856;2023-03-20T01:11:30;100411.78;;;7.82;85.60
77303;BME280;66363;49.828;7.856;2023-03-20T01:13:56;100408.03;;;7.87;85.20
77303;BME280;66363;49.828;7.856;2023-03-20T01:16:24;100423.22;;;7.99;84.76
77303;BME280;66363;49.828;7.856;2023-03-20T01:18:51;100425.53;;;8.05;84.71
77303;BME280;66363;49.828;7.856;2023-03-20T01:21:18;100409.81;;;7.86;85.48
77303;BME280;66363;49.828;7.856;2023-03-20T01:23:44;100397.63;;;7.83;85.15
77303;BME280;66363;49.828;7.856;2023-03-20T01:26:31;100430.91;;;8.03;85.65
77303;BME280;66363;49.828;7.856;2023-03-20T01:28:58;100398.25;;;7.89;85.73
77303;BME280;66363;49.828;7.856;2023-03-20T01:31:24;100401.81;;;7.88;85.77
77303;BME280;66363;49.828;7.856;2023-03-20T01:33:50;100435.66;;;7.97;85.27
77303;BME280;66363;49.828;7.856;2023-03-20T01:36:20;100456.56;;;8.17;85.22
77303;BME280;66363;49.828;7.856;2023-03-20T01:38:47;100429.97;;;8.04;85.18
77303;BME280;66363;49.828;7.856;2023-03-20T01:41:16;100451.19;;;8.18;85.39
77303;BME280;66363;49.828;7.856;2023-03-20T01:43:44;100439.84;;;8.16;84.73
77303;BME280;66363;49.828;7.856;2023-03-20T01:46:16;100436.34;;;8.16;84.88
77303;BME280;66363;49.828;7.856;2023-03-20T01:49:06;100450.00;;;8.24;84.87
77303;BME280;66363;49.828;7.856;2023-03-20T01:51:32;100452.81;;;8.21;84.66
77303;BME280;66363;49.828;7.856;2023-03-20T01:54:00;100448.97;;;8.11;85.22
77303;BME280;66363;49.828;7.856;2023-03-20T01:56:29;100409.06;;;7.84;85.66
77303;BME280;66363;49.828;7.856;2023-03-20T01:59:01;100462.44;;;8.06;85.79
77303;BME280;66363;49.828;7.856;2023-03-20T02:01:28;100434.22;;;7.91;85.64
77303;BME280;66363;49.828;7.856;2023-03-20T02:03:55;100427.13;;;7.92;85.31
77303;BME280;66363;49.828;7.856;2023-03-20T02:06:22;100463.13;;;8.10;85.54
77303;BME280;66363;49.828;7.856;2023-03-20T02:08:50;100453.00;;;8.02;85.95
77303;BME280;66363;49.828;7.856;2023-03-20T02:11:17;100423.13;;;7.84;85.11
77303;BME280;66363;49.828;7.856;2023-03-20T02:13:45;100420.06;;;7.92;85.50
77303;BME280;66363;49.828;7.856;2023-03-20T02:16:14;100417.25;;;7.95;84.88
77303;BME280;66363;49.828;7.856;2023-03-20T02:18:43;100467.91;;;8.19;85.13
77303;BME280;66363;49.828;7.856;2023-03-20T02:21:45;100470.72;;;8.16;85.17
77303;BME280;66363;49.828;7.856;2023-03-20T02:24:58;100453.22;;;8.13;85.29
77303;BME280;66363;49.828;7.856;2023-03-20T02:27:32;100419.81;;;7.97;84.87
77303;BME280;66363;49.828;7.856;2023-03-20T02:33:24;100462.13;;;8.28;85.12
77303;BME280;66363;49.828;7.856;2023-03-20T02:36:23;100463.22;;;8.24;84.80
77303;BME280;66363;49.828;7.856;2023-03-20T02:39:05;100455.53;;;8.20;85.35
77303;BME280;66363;49.828;7.856;2023-03-20T02:41:59;100418.56;;;8.04;84.36
77303;BME280;66363;49.828;7.856;2023-03-20T02:44:32;100435.41;;;8.17;84.63
77303;BME280;66363;49.828;7.856;2023-03-20T02:47:04;100429.97;;;8.04;84.58
77303;BME280;66363;49.828;7.856;2023-03-20T02:49:52;100443.25;;;8.18;85.23
77303;BME280;66363;49.828;7.856;2023-03-20T02:52:26;100438.75;;;8.21;85.31
77303;BME280;66363;49.828;7.856;2023-03-20T02:55:07;100453.50;;;8.40;84.65
77303;BME280;66363;49.828;7.856;2023-03-20T02:57:42;100420.25;;;8.21;84.71
77303;BME280;66363;49.828;7.856;2023-03-20T03:00:14;100421.78;;;8.25;85.00
77303;BME280;66363;49.828;7.856;2023-03-20T03:02:46;100394.06;;;8.16;84.33
77303;BME280;66363;49.828;7.856;2023-03-20T03:05:15;100418.28;;;8.24;84.83
77303;BME280;66363;49.828;7.856;2023-03-20T03:07:45;100409.50;;;8.24;85.09
77303;BME280;66363;49.828;7.856;2023-03-20T03:10:19;100402.69;;;8.20;84.76
77303;BME280;66363;49.828;7.856;2023-03-20T03:12:48;100412.91;;;8.26;84.58
77303;BME280;66363;49.828;7.856;2023-03-20T03:15:19;100416.56;;;8.23;84.66
77303;BME280;66363;49.828;7.856;2023-03-20T03:17:48;100402.25;;;8.11;84.93
77303;BME280;66363;49.828;7.856;2023-03-20T03:20:20;100423.56;;;8.24;84.83
77303;BME280;66363;49.828;7.856;2023-03-20T03:22:47;100430.06;;;8.34;84.78
77303;BME280;66363;49.828;7.856;2023-03-20T03:25:15;100418.53;;;8.20;84.85
77303;BME280;66363;49.828;7.856;2023-03-20T03:27:43;100458.38;;;8.32;84.85
77303;BME280;66363;49.828;7.856;2023-03-20T03:30:15;100457.00;;;8.41;84.83
77303;BME280;66363;49.828;7.856;2023-03-20T03:32:46;100414.28;;;8.17;84.34
77303;BME280;66363;49.828;7.856;2023-03-20T03:35:16;100462.91;;;8.46;85.03
77303;BME280;66363;49.828;7.856;2023-03-20T03:37:49;100427.31;;;8.20;84.67
77303;BME280;66363;49.828;7.856;2023-03-20T03:40:28;100466.63;;;8.58;84.37
77303;BME280;66363;49.828;7.856;2023-03-20T03:43:02;100434.25;;;8.38;84.22
77303;BME280;66363;49.828;7.856;2023-03-20T03:45:34;100482.41;;;8.59;84.71
77303;BME280;66363;49.828;7.856;2023-03-20T03:48:06;100474.16;;;8.49;84.69
77303;BME280;66363;49.828;7.856;2023-03-20T03:50:36;100446.25;;;8.44;84.81
77303;BME280;66363;49.828;7.856;2023-03-20T03:53:08;100443.09;;;8.37;84.84
77303;BME280;66363;49.828;7.856;2023-03-20T03:55:38;100416.25;;;8.29;84.42
77303;BME280;66363;49.828;7.856;2023-03-20T03:58:09;100473.44;;;8.62;84.69
77303;BME280;66363;49.828;7.856;2023-03-20T04:00:36;100451.38;;;8.47;84.33
77303;BME280;66363;49.828;7.856;2023-03-20T04:03:04;100466.28;;;8.64;84.58
77303;BME280;66363;49.828;7.856;2023-03-20T04:05:35;100459.75;;;8.55;84.24
77303;BME280;66363;49.828;7.856;2023-03-20T04:08:04;100444.66;;;8.41;84.74
77303;BME280;66363;49.828;7.856;2023-03-20T04:10:30;100459.31;;;8.47;85.09
77303;BME280;66363;49.828;7.856;2023-03-20T04:12:57;100451.13;;;8.36;85.83
77303;BME280;66363;49.828;7.856;2023-03-20T04:15:23;100445.59;;;8.40;85.59
77303;BME280;66363;49.828;7.856;2023-03-20T04:17:49;100462.06;;;8.45;85.57
77303;BME280;66363;49.828;7.856;2023-03-20T04:20:14;100451.03;;;8.37;85.88
77303;BME280;66363;49.828;7.856;2023-03-20T04:22:41;100477.50;;;8.53;85.72
77303;BME280;66363;49.828;7.856;2023-03-20T04:25:09;100466.66;;;8.42;85.77
77303;BME280;66363;49.828;7.856;2023-03-20T04:27:39;100462.66;;;8.50;85.52
77303;BME280;66363;49.828;7.856;2023-03-20T04:30:07;100477.22;;;8.58;85.63
77303;BME280;66363;49.828;7.856;2023-03-20T04:32:33;100451.91;;;8.38;85.74
77303;BME280;66363;49.828;7.856;2023-03-20T04:34:59;100436.19;;;8.35;85.33
77303;BME280;66363;49.828;7.856;2023-03-20T04:37:24;100490.56;;;8.56;85.85
77303;BME280;66363;49.828;7.856;2023-03-20T04:39:50;100501.53;;;8.64;85.59
77303;BME280;66363;49.828;7.856;2023-03-20T04:42:16;100476.97;;;8.46;85.96
77303;BME280;66363;49.828;7.856;2023-03-20T04:44:42;100503.25;;;8.65;85.55
77303;BME280;66363;49.828;7.856;2023-03-20T04:47:09;100499.91;;;8.62;85.76
77303;BME280;66363;49.828;7.856;2023-03-20T04:49:34;100474.34;;;8.46;86.30
77303;BME280;66363;49.828;7.856;2023-03-20T04:52:00;100461.78;;;8.34;86.31
77303;BME280;66363;49.828;7.856;2023-03-20T04:54:26;100514.94;;;8.61;86.75
77303;BME280;66363;49.828;7.856;2023-03-20T04:56:52;100474.41;;;8.45;86.72
77303;BME280;66363;49.828;7.856;2023-03-20T04:59:17;100462.13;;;8.44;86.51
77303;BME280;66363;49.828;7.856;2023-03-20T05:01:43;100488.91;;;8.69;85.08
77303;BME280;66363;49.828;7.856;2023-03-20T05:04:10;100482.00;;;8.67;85.35
77303;BME280;66363;49.828;7.856;2023-03-20T05:06:36;100497.56;;;8.87;85.58
77303;BME280;66363;49.828;7.856;2023-03-20T05:09:02;100444.28;;;8.63;84.85
77303;BME280;66363;49.828;7.856;2023-03-20T05:11:28;100478.81;;;8.76;85.62
77303;BME280;66363;49.828;7.856;2023-03-20T05:13:54;100496.59;;;8.74;86.56
77303;BME280;66363;49.828;7.856;2023-03-20T05:16:19;100458.63;;;8.43;86.83
77303;BME280;66363;49.828;7.856;2023-03-20T05:18:45;100498.63;;;8.69;86.72
77303;BME280;66363;49.828;7.856;2023-03-20T05:21:12;100483.78;;;8.66;86.95
77303;BME280;66363;49.828;7.856;2023-03-20T05:23:38;100438.16;;;8.47;87.29
77303;BME280;66363;49.828;7.856;2023-03-20T05:26:04;100459.53;;;8.58;86.91
77303;BME280;66363;49.828;7.856;2023-03-20T05:28:30;100501.44;;;8.66;87.72
77303;BME280;66363;49.828;7.856;2023-03-20T05:30:56;100469.88;;;8.31;88.07
77303;BME280;66363;49.828;7.856;2023-03-20T05:33:21;100494.72;;;8.44;88.17
77303;BME280;66363;49.828;7.856;2023-03-20T05:35:47;100496.69;;;8.41;87.96
77303;BME280;66363;49.828;7.856;2023-03-20T05:38:15;100507.94;;;8.44;88.21
77303;BME280;66363;49.828;7.856;2023-03-20T05:40:41;100484.47;;;8.38;88.19
77303;BME280;66363;49.828;7.856;2023-03-20T05:43:09;100505.47;;;8.41;88.69
77303;BME280;66363;49.828;7.856;2023-03-20T05:45:35;100496.31;;;8.31;88.53
77303;BME280;66363;49.828;7.856;2023-03-20T05:48:01;100506.75;;;8.34;88.73
77303;BME280;66363;49.828;7.856;2023-03-20T05:50:27;100497.16;;;8.32;88.50
77303;BME280;66363;49.828;7.856;2023-03-20T05:52:52;100488.06;;;8.37;88.30
77303;BME280;66363;49.828;7.856;2023-03-20T05:55:20;100505.72;;;8.53;88.55
77303;BME280;66363;49.828;7.856;2023-03-20T05:57:45;100526.03;;;8.52;87.62
77303;BME280;66363;49.828;7.856;2023-03-20T06:00:12;100498.38;;;8.26;88.49
77303;BME280;66363;49.828;7.856;2023-03-20T06:02:41;100504.41;;;8.28;87.96
77303;BME280;66363;49.828;7.856;2023-03-20T06:05:07;100536.19;;;8.44;88.43
77303;BME280;66363;49.828;7.856;2023-03-20T06:07:33;100530.88;;;8.44;88.86
77303;BME280;66363;49.828;7.856;2023-03-20T06:09:58;100543.25;;;8.59;88.85
77303;BME280;66363;49.828;7.856;2023-03-20T06:12:26;100537.03;;;8.44;89.02
77303;BME280;66363;49.828;7.856;2023-03-20T06:14:52;100535.00;;;8.49;89.33
77303;BME280;66363;49.828;7.856;2023-03-20T06:17:17;100552.31;;;8.55;89.44
77303;BME280;66363;49.828;7.856;2023-03-20T06:19:43;100534.22;;;8.47;89.50
77303;BME280;66363;49.828;7.856;2023-03-20T06:22:09;100539.59;;;8.46;90.42
77303;BME280;66363;49.828;7.856;2023-03-20T06:24:34;100501.16;;;8.23;90.27
77303;BME280;66363;49.828;7.856;2023-03-20T06:27:00;100542.69;;;8.54;90.18
77303;BME280;66363;49.828;7.856;2023-03-20T06:29:27;100554.78;;;8.58;90.53
77303;BME280;66363;49.828;7.856;2023-03-20T06:31:53;100529.53;;;8.53;89.92
77303;BME280;66363;49.828;7.856;2023-03-20T06:34:18;100524.09;;;8.56;89.33
77303;BME280;66363;49.828;7.856;2023-03-20T06:36:44;100540.53;;;8.61;89.40
77303;BME280;66363;49.828;7.856;2023-03-20T06:39:10;100520.31;;;8.44;89.30
77303;BME280;66363;49.828;7.856;2023-03-20T06:41:36;100532.41;;;8.64;88.83
77303;BME280;66363;49.828;7.856;2023-03-20T06:44:01;100487.47;;;8.48;88.47
77303;BME280;66363;49.828;7.856;2023-03-20T06:46:29;100494.31;;;8.52;88.74
77303;BME280;66363;49.828;7.856;2023-03-20T06:48:55;100509.72;;;8.60;89.01
77303;BME280;66363;49.828;7.856;2023-03-20T06:51:20;100534.66;;;8.71;89.31
77303;BME280;66363;49.828;7.856;2023-03-20T06:53:46;100510.25;;;8.50;89.36
77303;BME280;66363;49.828;7.856;2023-03-20T06:56:12;100536.53;;;8.69;88.73
77303;BME280;66363;49.828;7.856;2023-03-20T06:58:38;100532.25;;;8.67;88.67
77303;BME280;66363;49.828;7.856;2023-03-20T07:01:08;100540.44;;;8.62;89.46
77303;BME280;66363;49.828;7.856;2023-03-20T07:03:35;100543.34;;;8.58;89.85
77303;BME280;66363;49.828;7.856;2023-03-20T07:06:00;100534.13;;;8.65;89.79
77303;BME280;66363;49.828;7.856;2023-03-20T07:08:26;100543.25;;;8.75;89.18
77303;BME280;66363;49.828;7.856;2023-03-20T07:10:51;100544.34;;;8.87;89.43
77303;BME280;66363;49.828;7.856;2023-03-20T07:13:17;100552.53;;;8.98;88.61
77303;BME280;66363;49.828;7.856;2023-03-20T07:15:43;100548.69;;;9.03;87.78
77303;BME280;66363;49.828;7.856;2023-03-20T07:18:08;100551.44;;;9.02;88.19
77303;BME280;66363;49.828;7.856;2023-03-20T07:20:35;100561.69;;;9.08;88.21
77303;BME280;66363;49.828;7.856;2023-03-20T07:23:01;100556.56;;;9.05;86.77
77303;BME280;66363;49.828;7.856;2023-03-20T07:25:27;100563.56;;;9.06;87.25
77303;BME280;66363;49.828;7.856;2023-03-20T07:27:52;100564.78;;;9.14;87.41
77303;BME280;66363;49.828;7.856;2023-03-20T07:30:18;100568.97;;;9.34;86.80
77303;BME280;66363;49.828;7.856;2023-03-20T07:32:44;100562.72;;;9.35;85.50
77303;BME280;66363;49.828;7.856;2023-03-20T07:35:10;100558.41;;;9.48;84.32
77303;BME280;66363;49.828;7.856;2023-03-20T07:37:37;100573.88;;;9.70;85.14
77303;BME280;66363;49.828;7.856;2023-03-20T07:40:03;100575.13;;;9.79;85.02
77303;BME280;66363;49.828;7.856;2023-03-20T07:42:29;100570.59;;;9.95;83.39
77303;BME280;66363;49.828;7.856;2023-03-20T07:44:54;100573.81;;;10.00;82.60
77303;BME280;66363;49.828;7.856;2023-03-20T07:47:20;100561.22;;;10.04;82.64
77303;BME280;66363;49.828;7.856;2023-03-20T07:49:46;100565.00;;;10.00;82.62
77303;BME280;66363;49.828;7.856;2023-03-20T07:52:12;100553.78;;;10.25;82.06
77303;BME280;66363;49.828;7.856;2023-03-20T07:54:39;100572.59;;;10.63;81.04
77303;BME280;66363;49.828;7.856;2023-03-20T07:57:04;100570.75;;;11.04;79.29
77303;BME280;66363;49.828;7.856;2023-03-20T07:59:30;100575.47;;;11.40;77.51
77303;BME280;66363;49.828;7.856;2023-03-20T08:01:56;100561.38;;;11.65;76.50
77303;BME280;66363;49.828;7.856;2023-03-20T08:04:22;100575.13;;;11.84;75.63
77303;BME280;66363;49.828;7.856;2023-03-20T08:06:47;100573.09;;;12.01;73.86
77303;BME280;66363;49.828;7.856;2023-03-20T08:09:13;100565.84;;;12.28;73.80
77303;BME280;66363;49.828;7.856;2023-03-20T08:11:40;100559.88;;;12.86;71.76
77303;BME280;66363;49.828;7.856;2023-03-20T08:14:06;100552.75;;;13.70;67.42
77303;BME280;66363;49.828;7.856;2023-03-20T08:16:31;100567.31;;;15.00;63.20
77303;BME280;66363;49.828;7.856;2023-03-20T08:18:57;100570.13;;;16.04;60.55
77303;BME280;66363;49.828;7.856;2023-03-20T08:21:23;100570.81;;;16.26;59.15
77303;BME280;66363;49.828;7.856;2023-03-20T08:23:48;100582.53;;;16.05;59.32
77303;BME280;66363;49.828;7.856;2023-03-20T08:26:14;100571.00;;;15.19;59.69
77303;BME280;66363;49.828;7.856;2023-03-20T08:28:41;100569.53;;;15.26;60.15
77303;BME280;66363;49.828;7.856;2023-03-20T08:31:07;100582.22;;;15.45;60.96
77303;BME280;66363;49.828;7.856;2023-03-20T08:33:32;100591.41;;;14.66;59.32
77303;BME280;66363;49.828;7.856;2023-03-20T08:35:58;100588.88;;;14.53;61.13
77303;BME280;66363;49.828;7.856;2023-03-20T08:38:24;100581.47;;;13.77;62.84
77303;BME280;66363;49.828;7.856;2023-03-20T08:40:49;100596.53;;;13.43;64.79
77303;BME280;66363;49.828;7.856;2023-03-20T08:43:18;100580.53;;;12.96;65.02
77303;BME280;66363;49.828;7.856;2023-03-20T08:45:45;100594.41;;;12.75;65.17
77303;BME280;66363;49.828;7.856;2023-03-20T08:48:11;100591.47;;;12.54;65.11
77303;BME280;66363;49.828;7.856;2023-03-20T08:50:37;100595.72;;;13.30;64.99
77303;BME280;66363;49.828;7.856;2023-03-20T08:53:03;100582.69;;;14.42;59.73
77303;BME280;66363;49.828;7.856;2023-03-20T08:55:28;100578.94;;;15.10;59.85
77303;BME280;66363;49.828;7.856;2023-03-20T08:57:54;100578.69;;;16.99;52.05
77303;BME280;66363;49.828;7.856;2023-03-20T09:00:20;100570.19;;;18.19;48.32
77303;BME280;66363;49.828;7.856;2023-03-20T09:02:47;100594.09;;;17.06;48.90
77303;BME280;66363;49.828;7.856;2023-03-20T09:05:13;100544.97;;;16.86;50.04
77303;BME280;66363;49.828;7.856;2023-03-20T09:07:39;100570.75;;;16.47;50.77
77303;BME280;66363;49.828;7.856;2023-03-20T09:10:05;100582.13;;;15.68;52.80
77303;BME280;66363;49.828;7.856;2023-03-20T09:12:31;100561.28;;;15.18;54.39
77303;BME280;66363;49.828;7.856;2023-03-20T09:14:57;100589.22;;;15.25;56.52
77303;BME280;66363;49.828;7.856;2023-03-20T09:17:22;100577.94;;;15.54;54.92
77303;BME280;66363;49.828;7.856;2023-03-20T09:19:50;100590.03;;;14.94;55.80
77303;BME280;66363;49.828;7.856;2023-03-20T09:22:15;100592.13;;;14.23;57.03
77303;BME280;66363;49.828;7.856;2023-03-20T09:24:41;100560.69;;;14.27;56.46
77303;BME280;66363;49.828;7.856;2023-03-20T09:27:07;100585.94;;;14.23;59.39
77303;BME280;66363;49.828;7.856;2023-03-20T09:29:32;100547.16;;;14.84;57.47
77303;BME280;66363;49.828;7.856;2023-03-20T09:31:58;100578.94;;;15.10;55.40
77303;BME280;66363;49.828;7.856;2023-03-20T09:34:24;100552.47;;;15.07;57.15
77303;BME280;66363;49.828;7.856;2023-03-20T09:36:51;100579.28;;;16.32;52.58
77303;BME280;66363;49.828;7.856;2023-03-20T09:39:19;100590.72;;;16.34;51.58
77303;BME280;66363;49.828;7.856;2023-03-20T09:41:47;100542.84;;;15.36;53.18
77303;BME280;66363;49.828;7.856;2023-03-20T09:44:18;100587.03;;;14.76;54.30
77303;BME280;66363;49.828;7.856;2023-03-20T09:46:59;100578.91;;;14.22;56.23
77303;BME280;66363;49.828;7.856;2023-03-20T09:49:38;100573.47;;;15.75;53.04
77303;BME280;66363;49.828;7.856;2023-03-20T09:52:14;100571.81;;;16.05;52.86
77303;BME280;66363;49.828;7.856;2023-03-20T09:54:42;100576.03;;;15.34;53.35
77303;BME280;66363;49.828;7.856;2023-03-20T09:57:16;100576.19;;;14.89;54.34
77303;BME280;66363;49.828;7.856;2023-03-20T09:59:43;100597.47;;;14.79;55.41
77303;BME280;66363;49.828;7.856;2023-03-20T10:02:13;100581.47;;;14.68;55.44
77303;BME280;66363;49.828;7.856;2023-03-20T10:04:41;100578.91;;;14.67;54.77
77303;BME280;66363;49.828;7.856;2023-03-20T10:07:17;100575.41;;;14.44;55.07
77303;BME280;66363;49.828;7.856;2023-03-20T10:09:42;100557.41;;;14.23;54.55
77303;BME280;66363;49.828;7.856;2023-03-20T10:12:20;100575.66;;;14.52;54.55
77303;BME280;66363;49.828;7.856;2023-03-20T10:14:54;100585.31;;;14.86;54.04
77303;BME280;66363;49.828;7.856;2023-03-20T10:17:32;100576.97;;;15.23;52.35
77303;BME280;66363;49.828;7.856;2023-03-20T10:20:23;100581.00;;;17.90;43.62
77303;BME280;66363;49.828;7.856;2023-03-20T10:22:54;100570.63;;;19.77;38.55
77303;BME280;66363;49.828;7.856;2023-03-20T10:25:27;100577.22;;;20.01;37.73
77303;BME280;66363;49.828;7.856;2023-03-20T10:27:58;100577.09;;;18.68;39.41
77303;BME280;66363;49.828;7.856;2023-03-20T10:30:49;100586.34;;;17.13;42.89
77303;BME280;66363;49.828;7.856;2023-03-20T10:33:28;100577.81;;;15.97;45.97
77303;BME280;66363;49.828;7.856;2023-03-20T10:36:12;100593.34;;;15.61;48.42
77303;BME280;66363;49.828;7.856;2023-03-20T10:38:44;100592.25;;;15.32;43.08
77303;BME280;66363;49.828;7.856;2023-03-20T10:41:16;100598.94;;;14.72;45.42
77303;BME280;66363;49.828;7.856;2023-03-20T10:43:45;100589.97;;;14.73;46.11
77303;BME280;66363;49.828;7.856;2023-03-20T10:46:14;100585.19;;;14.99;47.11
77303;BME280;66363;49.828;7.856;2023-03-20T10:48:45;100591.41;;;15.32;45.34
77303;BME280;66363;49.828;7.856;2023-03-20T10:51:16;100588.50;;;15.23;46.40
77303;BME280;66363;49.828;7.856;2023-03-20T10:53:46;100579.06;;;15.40;45.77
77303;BME280;66363;49.828;7.856;2023-03-20T10:56:19;100585.78;;;15.35;45.05
77303;BME280;66363;49.828;7.856;2023-03-20T10:58:52;100592.28;;;15.21;44.53
77303;BME280;66363;49.828;7.856;2023-03-20T11:01:19;100588.16;;;15.49;43.90
77303;BME280;66363;49.828;7.856;2023-03-20T11:03:45;100584.69;;;15.69;42.82
77303;BME280;66363;49.828;7.856;2023-03-20T11:06:16;100583.44;;;15.73;44.89
77303;BME280;66363;49.828;7.856;2023-03-20T11:08:48;100587.09;;;15.93;45.00
77303;BME280;66363;49.828;7.856;2023-03-20T11:11:20;100581.56;;;15.85;42.57
77303;BME280;66363;49.828;7.856;2023-03-20T11:13:46;100574.63;;;16.03;45.79
77303;BME280;66363;49.828;7.856;2023-03-20T11:16:21;100581.19;;;16.20;42.28
77303;BME280;66363;49.828;7.856;2023-03-20T11:18:49;100579.75;;;16.16;41.78
77303;BME280;66363;49.828;7.856;2023-03-20T11:21:19;100567.38;;;16.85;40.31
77303;BME280;66363;49.828;7.856;2023-03-20T11:23:47;100577.25;;;16.94;38.73
77303;BME280;66363;49.828;7.856;2023-03-20T11:26:15;100574.41;;;17.65;39.67
77303;BME280;66363;49.828;7.856;2023-03-20T11:28:46;100575.72;;;18.17;36.16
77303;BME280;66363;49.828;7.856;2023-03-20T11:31:16;100583.31;;;18.69;34.51
77303;BME280;66363;49.828;7.856;2023-03-20T11:33:44;100590.28;;;19.07;33.73
77303;BME280;66363;49.828;7.856;2023-03-20T11:36:18;100571.88;;;19.65;32.65
77303;BME280;66363;49.828;7.856;2023-03-20T11:38:45;100564.19;;;19.70;32.89
77303;BME280;66363;49.828;7.856;2023-03-20T11:41:21;100571.03;;;19.64;32.47
77303;BME280;66363;49.828;7.856;2023-03-20T11:43:47;100572.41;;;19.33;33.27
77303;BME280;66363;49.828;7.856;2023-03-20T11:46:13;100563.09;;;19.81;33.30
77303;BME280;66363;49.828;7.856;2023-03-20T11:48:40;100564.19;;;19.70;32.96
77303;BME280;66363;49.828;7.856;2023-03-20T11:51:07;100578.19;;;19.20;32.11
77303;BME280;66363;49.828;7.856;2023-03-20T11:53:35;100560.94;;;19.13;35.12
77303;BME280;66363;49.828;7.856;2023-03-20T11:56:08;100564.22;;;20.48;33.59
77303;BME280;66363;49.828;7.856;2023-03-20T11:58:38;100561.09;;;22.80;29.05
77303;BME280;66363;49.828;7.856;2023-03-20T12:01:11;100569.53;;;22.13;27.58
77303;BME280;66363;49.828;7.856;2023-03-20T12:03:41;100559.41;;;21.83;27.96
77303;BME280;66363;49.828;7.856;2023-03-20T12:06:09;100553.97;;;19.99;29.75
77303;BME280;66363;49.828;7.856;2023-03-20T12:08:38;100518.44;;;19.96;31.21
77303;BME280;66363;49.828;7.856;2023-03-20T12:14:10;100546.03;;;20.50;27.76
77303;BME280;66363;49.828;7.856;2023-03-20T12:16:38;100542.69;;;20.04;29.49
77303;BME280;66363;49.828;7.856;2023-03-20T12:19:11;100532.44;;;19.38;29.93
77303;BME280;66363;49.828;7.856;2023-03-20T12:21:43;100516.03;;;17.67;33.12
77303;BME280;66363;49.828;7.856;2023-03-20T12:24:16;100532.16;;;17.09;35.20
77303;BME280;66363;49.828;7.856;2023-03-20T12:26:51;100525.50;;;17.23;37.03
77303;BME280;66363;49.828;7.856;2023-03-20T12:29:26;100517.03;;;17.18;35.21
77303;BME280;66363;49.828;7.856;2023-03-20T12:31:57;100511.06;;;16.76;38.66
77303;BME280;66363;49.828;7.856;2023-03-20T12:34:30;100522.16;;;16.61;38.98
77303;BME280;66363;49.828;7.856;2023-03-20T12:36:57;100522.97;;;17.02;36.58
77303;BME280;66363;49.828;7.856;2023-03-20T12:39:25;100520.44;;;17.29;36.21
77303;BME280;66363;49.828;7.856;2023-03-20T12:42:03;100523.41;;;16.57;38.35
77303;BME280;66363;49.828;7.856;2023-03-20T12:44:40;100524.59;;;16.74;36.82
77303;BME280;66363;49.828;7.856;2023-03-20T12:47:30;100517.56;;;16.83;37.73
77303;BME280;66363;49.828;7.856;2023-03-20T12:50:08;100522.06;;;16.73;37.56
77303;BME280;66363;49.828;7.856;2023-03-20T12:52:44;100515.50;;;17.35;37.45
77303;BME280;66363;49.828;7.856;2023-03-20T12:55:24;100495.16;;;17.32;34.92
77303;BME280;66363;49.828;7.856;2023-03-20T12:57:56;100519.41;;;17.50;35.75
77303;BME280;66363;49.828;7.856;2023-03-20T13:00:30;100493.88;;;18.12;36.23
77303;BME280;66363;49.828;7.856;2023-03-20T13:03:06;100500.94;;;17.37;37.35
77303;BME280;66363;49.828;7.856;2023-03-20T13:05:45;100501.59;;;17.78;34.43
77303;BME280;66363;49.828;7.856;2023-03-20T13:11:15;100503.28;;;17.88;35.23
77303;BME280;66363;49.828;7.856;2023-03-20T13:13:46;100505.97;;;17.79;35.25